Terminal Aerodrome Forecast
Issued by NWS Albany, NY

Home | Current Version | Previous Version | Text Only | Print | Product List | Glossary On
Versions: 1 2 3 4 5 6 7 8 9 10 11 12 13 14 15 16 17 18 19 20 21 22 23 24 25 26
412
FTUS41 KALY 211856 AAA
TAFPOU
TAF AMD
KPOU 211856Z 2119/2218 22004KT P6SM SCT005
     FM212000 24004KT P6SM SCT020 BKN050
     FM220000 00000KT 5SM BR OVC015
     FM220600 00000KT 3/4SM BR BKN005 OVC012
     FM221500 VRB03KT 3SM BR SCT005 OVC015=

USA.gov is the U.S. government's official web portal to all federal, state and local government web resources and services.